createdAt,value
2018-09-11T00:02:17.029Z,99.90
2018-09-11T00:04:47.530Z,99.90
2018-09-11T00:07:18.093Z,99.90
2018-09-11T00:09:48.383Z,99.90
2018-09-11T00:12:18.588Z,99.90
2018-09-11T00:14:48.886Z,99.90
2018-09-11T00:17:18.716Z,99.90
2018-09-11T00:19:49.097Z,99.90
2018-09-11T00:22:19.288Z,99.90
2018-09-11T00:24:49.673Z,99.90
2018-09-11T00:27:20.179Z,99.90
2018-09-11T00:29:50.251Z,99.90
2018-09-11T00:32:20.605Z,99.90
2018-09-11T00:34:50.854Z,99.90
2018-09-11T00:37:21.260Z,99.90
2018-09-11T00:39:51.508Z,99.90
2018-09-11T00:42:21.912Z,99.90
2018-09-11T00:44:52.233Z,99.90
2018-09-11T00:47:22.997Z,99.90
2018-09-11T00:49:53.392Z,99.90
2018-09-11T00:52:23.686Z,99.90
2018-09-11T00:54:54.142Z,99.90
2018-09-11T00:57:24.572Z,99.90
2018-09-11T00:59:54.940Z,99.90
2018-09-11T01:02:25.345Z,99.90
2018-09-11T01:04:55.979Z,99.90
2018-09-11T01:07:26.134Z,99.90
2018-09-11T01:09:55.991Z,99.90
2018-09-11T01:12:26.154Z,99.90
2018-09-11T01:14:56.705Z,99.90
2018-09-11T01:17:27.126Z,99.90
2018-09-11T01:19:57.379Z,99.90
2018-09-11T01:22:28.305Z,99.90
2018-09-11T01:24:58.972Z,99.90
2018-09-11T01:27:29.269Z,99.90
2018-09-11T01:29:59.680Z,99.90
2018-09-11T01:32:30.009Z,99.90
2018-09-11T01:35:00.633Z,99.90
2018-09-11T01:37:30.731Z,99.90
2018-09-11T01:40:01.200Z,99.90
2018-09-11T01:42:31.651Z,99.90
2018-09-11T01:45:02.511Z,99.90
2018-09-11T01:47:32.839Z,99.90
2018-09-11T01:50:03.317Z,99.90
2018-09-11T01:52:33.487Z,99.90
2018-09-11T01:55:03.698Z,99.90
2018-09-11T01:57:34.323Z,99.90
2018-09-11T02:00:04.678Z,99.90
2018-09-11T02:02:34.957Z,99.90
2018-09-11T02:05:05.635Z,99.90
2018-09-11T02:07:36.063Z,99.90
2018-09-11T02:10:06.837Z,99.90
2018-09-11T02:12:37.294Z,99.90
2018-09-11T02:15:08.335Z,99.90
2018-09-11T02:17:38.827Z,99.90
2018-09-11T02:20:08.958Z,99.90
2018-09-11T02:22:39.228Z,99.90
2018-09-11T02:25:09.662Z,99.90
2018-09-11T02:27:40.118Z,99.90
2018-09-11T02:30:10.503Z,99.90
2018-09-11T02:32:41.099Z,99.90
2018-09-11T02:35:11.606Z,99.90
2018-09-11T02:37:42.224Z,99.90
2018-09-11T02:40:12.704Z,99.90
2018-09-11T02:42:42.996Z,99.90
2018-09-11T02:45:14.183Z,99.90
2018-09-11T02:47:44.445Z,99.90
2018-09-11T02:50:14.911Z,99.90
2018-09-11T02:52:45.452Z,99.90
2018-09-11T02:55:15.351Z,99.90
2018-09-11T02:57:45.164Z,99.90
2018-09-11T03:00:15.655Z,99.90
2018-09-11T03:02:45.664Z,99.90
2018-09-11T03:05:15.533Z,99.90
2018-09-11T03:07:45.334Z,99.90
2018-09-11T03:10:15.414Z,99.90
2018-09-11T03:12:45.364Z,99.90
2018-09-11T03:15:15.406Z,99.90
2018-09-11T03:17:45.354Z,99.90
2018-09-11T03:20:15.300Z,99.90
2018-09-11T03:22:45.274Z,99.90
2018-09-11T03:25:15.463Z,99.90
2018-09-11T03:27:45.487Z,99.90
2018-09-11T03:30:15.421Z,99.90
2018-09-11T03:32:45.415Z,99.90
2018-09-11T03:35:15.531Z,99.90
2018-09-11T03:37:45.711Z,99.90
2018-09-11T03:40:15.630Z,99.90
2018-09-11T03:42:45.724Z,99.90
2018-09-11T03:45:15.667Z,99.90
2018-09-11T03:47:45.870Z,99.90
2018-09-11T03:50:15.775Z,99.90
2018-09-11T03:52:45.800Z,99.90
2018-09-11T03:55:15.573Z,99.90
2018-09-11T03:57:45.494Z,99.90
2018-09-11T04:00:15.979Z,99.90
2018-09-11T04:02:46.027Z,99.90
2018-09-11T04:05:15.964Z,99.90
2018-09-11T04:07:46.013Z,99.90
2018-09-11T04:10:16.150Z,99.90
2018-09-11T04:12:45.960Z,99.90
2018-09-11T04:15:15.886Z,99.90
2018-09-11T04:17:45.815Z,99.90
2018-09-11T04:20:15.807Z,99.90
2018-09-11T04:22:45.735Z,99.90
2018-09-11T04:25:15.580Z,99.90
2018-09-11T04:27:45.570Z,99.90
2018-09-11T04:30:15.511Z,99.90
2018-09-11T04:32:45.594Z,99.90
2018-09-11T04:35:15.476Z,99.90
2018-09-11T04:37:45.248Z,99.90
2018-09-11T04:40:15.205Z,99.90
2018-09-11T04:42:45.045Z,99.90
2018-09-11T04:45:15.531Z,99.90
2018-09-11T04:47:46.474Z,99.90
2018-09-11T04:50:16.491Z,99.90
2018-09-11T04:52:46.613Z,99.90
2018-09-11T04:55:16.592Z,99.90
2018-09-11T04:57:46.426Z,99.90
2018-09-11T05:00:17.163Z,99.90
2018-09-11T05:02:47.289Z,99.90
2018-09-11T05:05:17.135Z,99.90
2018-09-11T05:07:47.371Z,99.90
2018-09-11T05:10:17.419Z,99.90
2018-09-11T05:12:47.426Z,99.90
2018-09-11T05:15:17.594Z,99.90
2018-09-11T05:17:47.575Z,99.90
2018-09-11T05:20:17.604Z,99.90
2018-09-11T05:22:47.497Z,99.90
2018-09-11T05:25:17.443Z,99.90
2018-09-11T05:27:47.389Z,99.90
2018-09-11T05:30:17.275Z,99.90
2018-09-11T05:32:48.038Z,99.90
2018-09-11T05:35:18.094Z,99.90
2018-09-11T05:37:47.946Z,99.90
2018-09-11T05:40:18.071Z,99.90
2018-09-11T05:42:47.903Z,99.90
2018-09-11T05:45:17.902Z,99.90
2018-09-11T05:47:47.794Z,99.90
2018-09-11T05:50:17.895Z,99.90
2018-09-11T05:52:48.060Z,99.90
2018-09-11T05:55:17.825Z,99.90
2018-09-11T05:57:47.970Z,99.90
2018-09-11T06:00:17.773Z,99.90
2018-09-11T06:02:47.776Z,99.90
2018-09-11T06:05:17.645Z,99.90
2018-09-11T06:07:47.832Z,99.90
2018-09-11T06:10:17.630Z,99.90
2018-09-11T06:12:47.635Z,99.90
2018-09-11T06:15:17.436Z,99.90
2018-09-11T06:17:47.399Z,99.90
2018-09-11T06:20:17.137Z,99.90
2018-09-11T06:22:46.955Z,99.90
2018-09-11T06:25:16.927Z,99.90
2018-09-11T06:27:46.996Z,99.90
2018-09-11T06:30:17.839Z,99.90
2018-09-11T06:32:47.784Z,99.90
2018-09-11T06:35:17.668Z,99.90
2018-09-11T06:37:47.433Z,99.90
2018-09-11T06:40:17.509Z,99.90
2018-09-11T06:42:47.329Z,99.90
2018-09-11T06:45:17.331Z,99.90
2018-09-11T06:47:47.222Z,99.90
2018-09-11T06:50:17.629Z,99.90
2018-09-11T06:52:48.029Z,99.90
2018-09-11T06:55:18.660Z,99.90
2018-09-11T06:57:48.872Z,99.90
2018-09-11T07:00:19.329Z,99.90
2018-09-11T07:02:49.681Z,99.90
2018-09-11T07:05:20.248Z,99.90
2018-09-11T07:07:50.597Z,99.90
2018-09-11T07:10:21.021Z,99.90
2018-09-11T07:12:50.878Z,99.90
2018-09-11T07:15:20.930Z,99.90
2018-09-11T07:17:50.890Z,99.90
2018-09-11T07:20:21.715Z,99.90
2018-09-11T07:22:51.346Z,99.90
2018-09-11T07:25:21.210Z,99.90
2018-09-11T07:27:51.139Z,99.90
2018-09-11T07:30:21.077Z,99.90
2018-09-11T07:32:50.972Z,99.90
2018-09-11T07:35:21.263Z,99.90
2018-09-11T07:37:51.411Z,99.90
2018-09-11T07:40:21.296Z,99.90
2018-09-11T07:42:51.069Z,99.90
2018-09-11T07:45:21.290Z,99.90
2018-09-11T07:47:51.315Z,99.90
2018-09-11T07:50:21.288Z,99.90
2018-09-11T07:52:51.409Z,99.90
2018-09-11T07:55:21.162Z,99.90
2018-09-11T07:57:51.109Z,99.90
2018-09-11T08:00:21.055Z,99.90
2018-09-11T08:02:51.005Z,99.90
2018-09-11T08:05:20.895Z,99.90
2018-09-11T08:07:50.781Z,99.90
2018-09-11T08:10:20.792Z,99.90
2018-09-11T08:12:50.802Z,99.90
2018-09-11T08:15:20.642Z,99.90
2018-09-11T08:17:50.695Z,99.90
2018-09-11T08:20:20.469Z,99.90
2018-09-11T08:22:50.448Z,99.90
2018-09-11T08:25:20.286Z,99.90
2018-09-11T08:27:50.202Z,99.90
2018-09-11T08:30:20.095Z,99.90
2018-09-11T08:32:49.998Z,99.90
2018-09-11T08:35:19.957Z,99.90
2018-09-11T08:37:49.865Z,99.90
2018-09-11T08:40:19.975Z,99.90
2018-09-11T08:42:50.145Z,99.90
2018-09-11T08:45:21.270Z,99.90
2018-09-11T08:47:51.217Z,99.90
2018-09-11T08:50:21.039Z,99.90
2018-09-11T08:52:51.152Z,99.90
2018-09-11T08:55:21.240Z,99.90
2018-09-11T08:57:51.284Z,99.90
2018-09-11T09:00:21.070Z,99.90
2018-09-11T09:02:51.108Z,99.90
2018-09-11T09:05:21.363Z,99.90
2018-09-11T09:07:51.786Z,99.90
2018-09-11T09:10:22.148Z,99.90
2018-09-11T09:12:52.688Z,99.90
2018-09-11T09:15:22.930Z,99.90
2018-09-11T09:17:52.851Z,99.90
2018-09-11T09:20:23.223Z,99.90
2018-09-11T09:22:53.272Z,99.90
2018-09-11T09:25:23.424Z,99.90
2018-09-11T09:27:53.621Z,99.90
2018-09-11T09:30:23.799Z,99.90
2018-09-11T09:32:53.746Z,99.90
2018-09-11T09:35:23.900Z,99.90
2018-09-11T09:37:54.104Z,99.90
2018-09-11T09:40:24.604Z,99.90
2018-09-11T09:42:55.043Z,99.90
2018-09-11T09:45:25.279Z,99.90
2018-09-11T09:47:55.961Z,99.90
2018-09-11T09:50:26.379Z,99.90
2018-09-11T09:52:56.964Z,99.90
2018-09-11T09:55:27.360Z,99.90
2018-09-11T09:57:58.029Z,99.90
2018-09-11T10:00:33.283Z,99.90
2018-09-11T10:03:03.409Z,99.90
2018-09-11T10:05:33.918Z,99.90
2018-09-11T10:08:04.147Z,99.90
2018-09-11T10:10:34.422Z,99.90
2018-09-11T10:13:04.920Z,99.90
2018-09-11T10:15:35.579Z,99.90
2018-09-11T10:18:05.658Z,99.90
2018-09-11T10:20:36.001Z,99.90
2018-09-11T10:23:06.196Z,99.90
2018-09-11T10:25:36.027Z,99.90
2018-09-11T10:28:05.937Z,99.90
2018-09-11T10:30:36.334Z,99.90
2018-09-11T10:33:06.164Z,99.90
2018-09-11T10:35:36.186Z,99.90
2018-09-11T10:38:06.189Z,99.90
2018-09-11T10:40:36.036Z,99.90
2018-09-11T10:43:06.131Z,99.90
2018-09-11T10:45:36.237Z,99.90
2018-09-11T10:48:06.397Z,99.90
2018-09-11T10:50:36.433Z,99.90
2018-09-11T10:53:06.655Z,99.90
2018-09-11T10:55:36.747Z,99.90
2018-09-11T10:58:07.263Z,99.90
2018-09-11T11:00:37.111Z,99.90
2018-09-11T11:03:07.436Z,99.90
2018-09-11T11:05:37.336Z,99.90
2018-09-11T11:08:07.785Z,99.90
2018-09-11T11:10:38.162Z,99.90
2018-09-11T11:13:08.113Z,99.90
2018-09-11T11:15:38.260Z,99.90
2018-09-11T11:18:08.626Z,99.90
2018-09-11T11:20:38.683Z,99.90
2018-09-11T11:23:08.592Z,99.90
2018-09-11T11:25:38.820Z,99.90
2018-09-11T11:28:08.833Z,99.90
2018-09-11T11:30:38.848Z,99.90
2018-09-11T11:33:08.840Z,99.90
2018-09-11T11:35:38.779Z,99.90
2018-09-11T11:38:08.638Z,99.90
2018-09-11T11:40:38.639Z,99.90
2018-09-11T11:43:08.912Z,99.90
2018-09-11T11:45:38.763Z,99.90
2018-09-11T11:48:08.709Z,99.90
2018-09-11T11:50:38.728Z,99.90
2018-09-11T11:53:08.849Z,99.90
2018-09-11T11:55:38.869Z,99.90
2018-09-11T11:58:08.856Z,99.90
2018-09-11T12:00:39.140Z,99.90
2018-09-11T12:03:09.829Z,99.90
2018-09-11T12:05:39.830Z,99.90
2018-09-11T12:08:09.985Z,99.90
2018-09-11T12:10:39.999Z,99.90
2018-09-11T12:13:09.812Z,99.90
2018-09-11T12:15:39.976Z,99.90
2018-09-11T12:18:09.999Z,99.90
2018-09-11T12:20:39.998Z,99.90
2018-09-11T12:23:10.082Z,99.90
2018-09-11T12:25:40.266Z,99.90
2018-09-11T12:28:26.188Z,99.90
2018-09-11T12:30:56.035Z,99.90
2018-09-11T12:33:26.100Z,99.90
2018-09-11T12:35:56.453Z,99.90
2018-09-11T12:38:26.583Z,99.90
2018-09-11T12:40:56.689Z,99.90
2018-09-11T12:43:32.337Z,99.90
2018-09-11T12:46:05.772Z,99.90
2018-09-11T12:48:36.774Z,99.90
2018-09-11T12:51:07.910Z,99.90
2018-09-11T12:53:38.514Z,99.90
2018-09-11T12:56:08.921Z,99.90
2018-09-11T12:58:39.382Z,99.90
2018-09-11T13:01:09.526Z,98.90
2018-09-11T13:03:39.782Z,98.20
2018-09-11T13:06:09.969Z,98.00
2018-09-11T13:08:40.037Z,97.20
2018-09-11T13:11:10.237Z,97.10
2018-09-11T13:13:40.582Z,96.50
2018-09-11T13:16:11.133Z,96.00
2018-09-11T13:18:41.516Z,95.90
2018-09-11T13:21:11.719Z,95.80
2018-09-11T13:23:42.144Z,96.00
2018-09-11T13:26:12.314Z,95.00
2018-09-11T13:28:42.661Z,94.80
2018-09-11T13:31:12.870Z,94.40
2018-09-11T13:33:42.743Z,93.80
2018-09-11T13:36:12.876Z,93.40
2018-09-11T13:38:43.044Z,93.10
2018-09-11T13:41:13.282Z,93.50
2018-09-11T13:43:43.486Z,93.00
2018-09-11T13:46:13.806Z,93.00
2018-09-11T13:48:43.924Z,92.90
2018-09-11T13:51:14.417Z,92.90
2018-09-11T13:53:44.973Z,92.60
2018-09-11T13:56:15.078Z,92.70
2018-09-11T13:58:45.278Z,92.60
2018-09-11T14:01:15.614Z,92.60
2018-09-11T14:03:45.757Z,92.70
2018-09-11T14:06:16.123Z,92.60
2018-09-11T14:08:46.404Z,92.00
2018-09-11T14:11:16.900Z,91.20
2018-09-11T14:13:47.400Z,91.10
2018-09-11T14:16:17.678Z,90.20
2018-09-11T14:18:48.035Z,90.30
2018-09-11T14:21:18.697Z,90.40
2018-09-11T14:23:48.593Z,90.90
2018-09-11T14:26:18.926Z,90.40
2018-09-11T14:28:49.807Z,90.30
2018-09-11T14:31:20.838Z,88.50
2018-09-11T14:33:50.928Z,88.00
2018-09-11T14:36:21.175Z,86.70
2018-09-11T14:38:51.438Z,86.30
2018-09-11T14:41:22.179Z,86.80
2018-09-11T14:43:52.425Z,86.70
2018-09-11T14:46:23.272Z,86.80
2018-09-11T14:48:53.456Z,86.30
2018-09-11T14:51:23.605Z,86.70
2018-09-11T14:53:54.064Z,86.00
2018-09-11T14:56:24.361Z,85.40
2018-09-11T14:58:57.929Z,85.40
2018-09-11T15:01:28.270Z,86.80
2018-09-11T15:03:58.654Z,86.10
2018-09-11T15:06:29.070Z,86.80
2018-09-11T15:08:59.180Z,87.60
2018-09-11T15:11:29.338Z,88.20
2018-09-11T15:13:59.573Z,89.00
2018-09-11T15:16:29.477Z,90.50
2018-09-11T15:18:59.746Z,90.30
2018-09-11T15:21:30.077Z,90.40
2018-09-11T15:24:00.882Z,90.60
2018-09-11T15:26:30.926Z,90.60
2018-09-11T15:29:01.236Z,90.40
2018-09-11T15:31:31.314Z,90.70
2018-09-11T15:34:02.209Z,90.90
2018-09-11T15:36:32.689Z,90.90
2018-09-11T15:39:02.656Z,90.60
2018-09-11T15:41:32.647Z,90.50
2018-09-11T15:44:03.628Z,90.40
2018-09-11T15:46:33.702Z,90.50
2018-09-11T15:49:04.249Z,90.40
2018-09-11T15:51:34.523Z,90.60
2018-09-11T15:54:04.711Z,90.80
2018-09-11T15:56:34.885Z,90.80
2018-09-11T15:59:05.171Z,90.80
2018-09-11T16:01:35.376Z,90.50
2018-09-11T16:04:05.810Z,90.40
2018-09-11T16:06:35.875Z,90.50
2018-09-11T16:09:09.297Z,90.50
2018-09-11T16:11:39.561Z,90.80
2018-09-11T16:14:10.345Z,90.90
2018-09-11T16:16:40.891Z,90.70
2018-09-11T16:19:11.496Z,90.70
2018-09-11T16:21:42.176Z,90.70
2018-09-11T16:24:12.363Z,90.90
2018-09-11T16:26:43.097Z,90.80
2018-09-11T16:29:13.422Z,91.30
2018-09-11T16:31:43.529Z,90.80
2018-09-11T16:34:13.672Z,90.50
2018-09-11T16:36:44.015Z,90.30
2018-09-11T16:39:14.354Z,90.20
2018-09-11T16:41:44.616Z,90.20
2018-09-11T16:44:14.767Z,90.50
2018-09-11T16:46:44.875Z,90.70
2018-09-11T16:49:14.889Z,90.40
2018-09-11T16:51:45.132Z,90.30
2018-09-11T16:54:15.106Z,90.50
2018-09-11T16:56:45.625Z,90.50
2018-09-11T16:59:15.867Z,90.80
2018-09-11T17:01:46.015Z,91.00
2018-09-11T17:04:16.362Z,90.80
2018-09-11T17:06:46.922Z,90.90
2018-09-11T17:09:16.868Z,90.90
2018-09-11T17:11:46.990Z,90.90
2018-09-11T17:14:17.401Z,91.20
2018-09-11T17:16:47.536Z,91.20
2018-09-11T17:19:17.958Z,91.30
2018-09-11T17:21:48.610Z,91.60
2018-09-11T17:24:19.329Z,91.70
2018-09-11T17:26:49.206Z,91.60
2018-09-11T17:29:19.612Z,92.10
2018-09-11T17:31:49.826Z,92.30
2018-09-11T17:34:19.843Z,92.40
2018-09-11T17:36:50.089Z,92.60
2018-09-11T17:39:20.419Z,92.70
2018-09-11T17:41:50.780Z,92.70
2018-09-11T17:44:20.813Z,92.80
2018-09-11T17:46:50.752Z,92.90
2018-09-11T17:49:20.630Z,93.20
2018-09-11T17:51:50.813Z,93.30
2018-09-11T17:54:20.925Z,93.40
2018-09-11T17:56:50.936Z,93.60
2018-09-11T17:59:21.147Z,93.80
2018-09-11T18:01:51.059Z,94.00
2018-09-11T18:04:21.143Z,94.10
2018-09-11T18:06:51.054Z,94.30
2018-09-11T18:09:21.316Z,94.50
2018-09-11T18:11:51.284Z,94.70
2018-09-11T18:14:21.612Z,94.80
2018-09-11T18:16:51.737Z,95.00
2018-09-11T18:19:21.824Z,95.20
2018-09-11T18:21:52.251Z,95.20
2018-09-11T18:24:22.470Z,95.20
2018-09-11T18:26:52.838Z,95.40
2018-09-11T18:29:23.070Z,95.50
2018-09-11T18:31:53.520Z,95.60
2018-09-11T18:34:23.986Z,95.80
2018-09-11T18:36:54.017Z,96.00
2018-09-11T18:39:24.472Z,96.20
2018-09-11T18:41:54.819Z,96.60
2018-09-11T18:44:25.307Z,96.50
2018-09-11T18:46:55.371Z,96.60
2018-09-11T18:49:26.070Z,96.70
2018-09-11T18:51:56.231Z,97.00
2018-09-11T18:54:26.793Z,97.10
2018-09-11T18:56:57.175Z,97.30
2018-09-11T18:59:27.516Z,96.90
2018-09-11T19:01:57.724Z,97.00
2018-09-11T19:04:28.360Z,97.20
2018-09-11T19:06:58.417Z,97.40
2018-09-11T19:09:28.625Z,97.50
2018-09-11T19:11:59.149Z,97.60
2018-09-11T19:14:29.725Z,97.80
2018-09-11T19:17:00.082Z,97.90
2018-09-11T19:19:30.456Z,98.00
2018-09-11T19:22:00.635Z,98.30
2018-09-11T19:24:30.678Z,98.30
2018-09-11T19:27:01.198Z,98.40
2018-09-11T19:29:31.552Z,98.50
2018-09-11T19:32:01.714Z,98.60
2018-09-11T19:34:32.207Z,98.70
2018-09-11T19:37:02.731Z,98.90
2018-09-11T19:39:33.024Z,98.70
2018-09-11T19:42:03.052Z,98.70
2018-09-11T19:44:32.975Z,98.70
2018-09-11T19:47:03.105Z,98.90
2018-09-11T19:49:33.684Z,99.20
2018-09-11T19:52:03.645Z,99.40
2018-09-11T19:54:34.757Z,99.70
2018-09-11T19:57:05.158Z,99.90
2018-09-11T19:59:35.347Z,99.90
2018-09-11T20:02:05.899Z,99.90
2018-09-11T20:04:36.255Z,99.90
2018-09-11T20:07:06.540Z,99.90
2018-09-11T20:09:41.339Z,99.90
2018-09-11T20:12:13.086Z,99.90
2018-09-11T20:14:43.399Z,99.90
2018-09-11T20:17:13.638Z,99.90
2018-09-11T20:19:44.397Z,99.90
2018-09-11T20:22:14.765Z,99.90
2018-09-11T20:24:45.310Z,99.90
2018-09-11T20:27:15.524Z,99.90
2018-09-11T20:29:45.851Z,99.90
2018-09-11T20:32:15.837Z,99.90
2018-09-11T20:34:46.199Z,99.90
2018-09-11T20:37:16.530Z,99.90
2018-09-11T20:39:47.085Z,99.90
2018-09-11T20:42:17.099Z,99.90
2018-09-11T20:44:47.894Z,99.90
2018-09-11T20:47:18.170Z,99.90
2018-09-11T20:49:48.181Z,99.90
2018-09-11T20:52:21.014Z,99.90
2018-09-11T20:54:51.896Z,99.90
2018-09-11T20:57:23.738Z,99.90
2018-09-11T20:59:54.653Z,99.90
2018-09-11T21:02:25.549Z,99.90
2018-09-11T21:04:56.345Z,99.90
2018-09-11T21:07:27.428Z,99.90
2018-09-11T21:10:00.346Z,99.90
2018-09-11T21:12:31.675Z,99.90
2018-09-11T21:15:01.454Z,99.90
2018-09-11T21:17:31.365Z,99.90
2018-09-11T21:20:01.250Z,99.90
2018-09-11T21:22:31.303Z,99.90
2018-09-11T21:25:01.298Z,99.90
2018-09-11T21:27:31.535Z,99.90
2018-09-11T21:30:02.019Z,99.90
2018-09-11T21:32:32.152Z,99.90
2018-09-11T21:35:02.295Z,99.90
2018-09-11T21:37:32.412Z,99.90
2018-09-11T21:40:02.589Z,99.90
2018-09-11T21:42:32.529Z,99.90
2018-09-11T21:45:03.629Z,99.90
2018-09-11T21:47:33.893Z,99.90
2018-09-11T21:50:04.107Z,99.90
2018-09-11T21:52:34.506Z,99.90
2018-09-11T21:55:04.864Z,99.90
2018-09-11T21:57:35.422Z,99.90
2018-09-11T22:00:07.912Z,99.90
2018-09-11T22:02:38.468Z,99.90
2018-09-11T22:05:10.637Z,99.90
2018-09-11T22:07:41.328Z,99.90
2018-09-11T22:10:12.828Z,99.90
2018-09-11T22:12:43.352Z,99.90
2018-09-11T22:15:14.778Z,99.90
2018-09-11T22:17:45.337Z,99.90
2018-09-11T22:20:16.115Z,99.90
2018-09-11T22:22:47.018Z,99.90
2018-09-11T22:25:17.230Z,99.90
2018-09-11T22:27:47.971Z,99.90
2018-09-11T22:30:19.206Z,99.90
2018-09-11T22:32:49.729Z,99.90
2018-09-11T22:35:20.238Z,99.90
2018-09-11T22:37:50.574Z,99.90
2018-09-11T22:40:21.026Z,99.90
2018-09-11T22:42:51.142Z,99.90
2018-09-11T22:45:21.372Z,99.90
2018-09-11T22:47:51.732Z,99.90
2018-09-11T22:50:22.219Z,99.90
2018-09-11T22:52:52.756Z,99.90
2018-09-11T22:55:23.201Z,99.90
2018-09-11T22:57:53.505Z,99.90
2018-09-11T23:00:23.606Z,99.90
2018-09-11T23:02:53.926Z,99.90
2018-09-11T23:05:24.461Z,99.90
2018-09-11T23:07:54.937Z,99.90
2018-09-11T23:10:25.362Z,99.90
2018-09-11T23:12:55.525Z,99.90
2018-09-11T23:15:25.791Z,99.90
2018-09-11T23:17:56.119Z,99.90
2018-09-11T23:20:26.429Z,99.90
2018-09-11T23:22:56.708Z,99.90
2018-09-11T23:25:27.100Z,99.90
2018-09-11T23:27:57.342Z,99.90
2018-09-11T23:30:27.509Z,99.90
2018-09-11T23:32:57.609Z,99.90
2018-09-11T23:35:27.973Z,99.90
2018-09-11T23:37:58.152Z,99.90
2018-09-11T23:40:28.590Z,99.90
2018-09-11T23:42:58.963Z,99.90
2018-09-11T23:45:29.246Z,99.90
2018-09-11T23:47:59.218Z,99.90
2018-09-11T23:50:29.572Z,99.90
2018-09-11T23:53:00.295Z,99.90
2018-09-11T23:55:30.333Z,99.90
2018-09-11T23:58:00.210Z,99.90
